.
WxDataArchive / Data Records for 2009-11-07
2009-11-06 November 2009 2009-11-08

Data Records for Saturday, 07 November 2009

Time	Temp	Chill	HIndex	Humid	Dewpt	 Wind 	HiWind	WindDir	Rain 	Barom 
-----	----	-----	------	-----	-----	------	------	-------	-----	----- 
00:00	47.4	47.4	47.4	55	32.1	0	5	90	0.00	30.045 
00:05	47.3	47.3	47.3	55	32.0	0	2	22	0.00	30.045 
00:10	47.3	47.3	47.3	56	32.4	0	3	315	0.00	30.045 
00:15	47.1	47.1	47.1	56	32.2	0	3	112	0.00	30.041 
00:20	47.1	47.1	47.1	56	32.2	1	3	270	0.00	30.041 
00:25	47.0	47.0	47.0	56	32.1	0	1	270	0.00	30.041 
00:30	47.0	47.0	47.0	56	32.1	0	2	90	0.00	30.040 
00:35	46.8	46.8	46.8	56	31.9	0	2	90	0.00	30.040 
00:40	46.8	46.8	46.8	56	31.9	0	3	90	0.00	30.040 
00:45	46.8	46.8	46.8	56	31.9	0	2	90	0.00	30.037 
00:50	46.7	46.7	46.7	56	31.8	0	2	338	0.00	30.037 
00:55	46.7	46.7	46.7	56	31.8	0	3	90	0.00	30.037 
01:00	46.5	46.5	46.5	56	31.7	1	3	135	0.00	30.026 
01:05	46.5	46.5	46.5	56	31.7	1	3	90	0.00	30.026 
01:10	46.4	46.4	46.4	56	31.6	0	3	112	0.00	30.026 
01:15	46.4	46.4	46.4	57	32.0	1	3	112	0.00	30.024 
01:20	46.4	46.4	46.4	57	32.0	0	1	135	0.00	30.024 
01:25	46.2	46.2	46.2	57	31.8	0	2	112	0.00	30.024 
01:30	46.1	46.1	46.1	57	31.7	0	1	112	0.00	30.022 
01:35	45.8	45.8	45.8	58	31.9	0	1	112	0.00	30.022 
01:40	45.8	45.8	45.8	58	31.9	0	3	112	0.00	30.022 
01:45	45.8	45.8	45.8	58	31.9	0	2	112	0.00	30.009 
01:50	45.8	45.8	45.8	57	31.4	0	2	112	0.00	30.009 
01:55	46.0	46.0	46.0	57	31.6	0	3	68	0.00	30.009 
02:00	46.0	46.0	46.0	56	31.2	0	3	45	0.00	30.001 
02:05	46.1	46.1	46.1	56	31.3	0	2	90	0.00	30.001 
02:10	46.2	46.2	46.2	55	30.9	1	4	90	0.00	30.001 
02:15	46.4	46.4	46.4	55	31.1	1	3	45	0.00	29.993 
02:20	46.5	46.5	46.5	54	30.8	1	4	90	0.00	29.993 
02:25	46.8	46.8	46.8	54	31.0	1	4	68	0.00	29.993 
02:30	46.8	46.8	46.8	54	31.0	1	4	90	0.00	29.990 
02:35	47.0	47.0	47.0	54	31.2	1	5	112	0.00	29.990 
02:40	47.0	47.0	47.0	54	31.2	1	2	112	0.00	29.990 
02:45	47.0	47.0	47.0	54	31.2	0	3	0	0.00	29.983 
02:50	47.0	47.0	47.0	54	31.2	0	1	0	0.00	29.983 
02:55	47.0	47.0	47.0	54	31.2	1	4	112	0.00	29.983 
03:00	47.0	47.0	47.0	54	31.2	0	3	45	0.00	29.978 
03:05	47.0	47.0	47.0	54	31.2	0	2	68	0.00	29.978 
03:10	47.0	47.0	47.0	54	31.2	0	2	338	0.00	29.978 
03:15	47.0	47.0	47.0	53	30.8	0	5	90	0.00	29.974 
03:20	47.1	47.1	47.1	54	31.3	0	3	90	0.00	29.974 
03:25	47.3	47.3	47.3	53	31.0	0	4	270	0.00	29.974 
03:30	47.3	47.3	47.3	53	31.0	0	2	338	0.00	29.970 
03:35	47.3	47.3	47.3	53	31.0	0	5	0	0.00	29.970 
03:40	47.3	47.3	47.3	53	31.0	0	3	22	0.00	29.970 
03:45	47.3	47.3	47.3	54	31.5	0	4	292	0.00	29.964 
03:50	47.1	47.1	47.1	54	31.3	1	3	292	0.00	29.964 
03:55	47.1	47.1	47.1	54	31.3	0	2	315	0.00	29.964 
04:00	47.1	47.1	47.1	54	31.3	0	3	315	0.00	29.958 
04:05	47.1	47.1	47.1	54	31.3	0	1	0	0.00	29.958 
04:10	47.0	47.0	47.0	54	31.2	1	3	90	0.00	29.958 
04:15	47.0	47.0	47.0	54	31.2	0	2	68	0.00	29.947 
04:20	46.8	46.8	46.8	54	31.0	0	2	22	0.00	29.947 
04:25	46.8	46.8	46.8	54	31.0	1	4	292	0.00	29.947 
04:30	47.0	47.0	47.0	55	31.7	0	5	112	0.00	29.942 
04:35	46.8	46.8	46.8	55	31.5	0	3	90	0.00	29.942 
04:40	46.8	46.8	46.8	55	31.5	0	3	270	0.00	29.942 
04:45	46.8	46.8	46.8	55	31.5	0	3	270	0.00	29.942 
04:50	46.7	46.7	46.7	56	31.8	0	2	292	0.00	29.942 
04:55	46.7	46.7	46.7	56	31.8	0	2	292	0.00	29.942 
05:00	46.7	46.7	46.7	56	31.8	0	2	292	0.00	29.938 
05:05	46.7	46.7	46.7	56	31.8	0	2	45	0.00	29.938 
05:10	46.5	46.5	46.5	57	32.1	0	2	225	0.00	29.938 
05:15	46.7	46.7	46.7	57	32.3	1	4	135	0.00	29.939 
05:20	46.7	46.7	46.7	57	32.3	1	5	292	0.00	29.939 
05:25	46.8	46.8	46.8	57	32.4	1	3	248	0.00	29.939 
05:30	47.0	47.0	47.0	56	32.1	1	4	248	0.00	29.938 
05:35	47.0	47.0	47.0	57	32.6	1	4	248	0.00	29.938 
05:40	47.0	47.0	47.0	57	32.6	1	3	292	0.00	29.938 
05:45	46.8	46.8	46.8	57	32.4	0	2	270	0.00	29.933 
05:50	46.8	46.8	46.8	57	32.4	0	3	270	0.00	29.933 
05:55	46.8	46.8	46.8	58	32.8	0	2	270	0.00	29.933 
06:00	46.8	46.8	46.8	58	32.8	1	3	248	0.00	29.939 
06:05	46.8	46.8	46.8	58	32.8	0	5	292	0.00	29.939 
06:10	46.8	46.8	46.8	58	32.8	0	1	292	0.00	29.939 
06:15	46.8	46.8	46.8	58	32.8	1	4	225	0.00	29.934 
06:20	46.8	46.8	46.8	58	32.8	0	3	225	0.00	29.934 
06:25	46.8	46.8	46.8	58	32.8	0	3	270	0.00	29.934 
06:30	46.8	46.8	46.8	58	32.8	0	3	270	0.00	29.931 
06:35	46.8	46.8	46.8	59	33.2	0	3	248	0.00	29.931 
06:40	46.8	46.8	46.8	59	33.2	1	4	248	0.00	29.931 
06:45	46.8	46.8	46.8	59	33.2	0	2	248	0.00	29.926 
06:50	46.8	46.8	46.8	60	33.7	0	1	248	0.00	29.926 
06:55	46.7	46.7	46.7	60	33.6	0	2	248	0.00	29.926 
07:00	46.7	46.7	46.7	60	33.6	0	3	248	0.00	29.923 
07:05	46.8	46.8	46.8	60	33.7	0	3	248	0.00	29.923 
07:10	47.0	47.0	47.0	60	33.8	0	3	248	0.00	29.923 
07:15	47.0	47.0	47.0	61	34.3	1	3	248	0.00	29.927 
07:20	47.1	47.1	47.1	61	34.4	0	2	248	0.00	29.927 
07:25	47.1	47.1	47.1	61	34.4	0	4	248	0.00	29.927 
07:30	47.3	47.3	47.3	61	34.5	0	4	270	0.00	29.929 
07:35	47.4	47.4	47.4	61	34.6	1	4	248	0.00	29.929 
07:40	47.6	47.6	47.6	62	35.2	0	3	248	0.00	29.929 
07:45	47.6	47.6	47.6	62	35.2	1	3	270	0.00	29.930 
07:50	47.7	47.7	47.7	62	35.3	0	4	248	0.00	29.930 
07:55	47.9	47.9	47.9	62	35.5	0	2	248	0.00	29.930 
08:00	48.2	48.2	48.2	62	35.8	1	3	248	0.00	29.931 
08:05	48.6	48.6	48.6	62	36.2	0	6	248	0.00	29.931 
08:10	48.9	48.9	48.9	62	36.5	0	3	248	0.00	29.931 
08:15	49.2	49.2	49.2	61	36.3	0	1	248	0.00	29.929 
08:20	49.5	49.5	49.5	61	36.6	0	2	248	0.00	29.929 
08:25	50.1	50.1	50.1	60	36.8	1	5	248	0.00	29.929 
08:30	50.4	50.4	50.4	61	37.5	0	2	248	0.00	29.928 
08:35	51.0	51.0	51.0	60	37.6	1	4	270	0.00	29.928 
08:40	51.4	51.4	51.4	59	37.6	1	5	248	0.00	29.928 
08:45	51.7	51.7	51.7	59	37.8	1	6	292	0.00	29.926 
08:50	52.2	52.2	52.2	59	38.3	1	5	248	0.00	29.926 
08:55	52.6	52.6	52.6	58	38.2	2	5	248	0.00	29.926 
09:00	53.1	53.1	53.1	58	38.7	2	4	248	0.00	29.927 
09:05	53.5	53.5	53.5	57	38.6	3	10	270	0.00	29.927 
09:10	53.9	53.9	53.9	57	39.0	2	7	248	0.00	29.927 
09:15	54.4	54.4	54.4	57	39.5	2	7	248	0.00	29.924 
09:20	54.7	54.7	54.7	56	39.3	3	7	248	0.00	29.924 
09:25	55.1	55.1	55.1	56	39.7	2	7	248	0.00	29.924 
09:30	55.4	55.4	55.4	57	40.4	2	6	248	0.00	29.918 
09:35	55.7	55.7	55.7	56	40.2	2	9	248	0.00	29.918 
09:40	56.2	56.2	56.2	56	40.7	3	9	270	0.00	29.918 
09:45	56.5	56.5	56.5	55	40.5	3	9	248	0.00	29.915 
09:50	56.7	56.7	56.7	56	41.2	3	7	270	0.00	29.915 
09:55	56.9	56.9	56.9	56	41.4	4	9	248	0.00	29.915 
10:00	57.2	57.2	57.2	56	41.6	4	9	248	0.00	29.914 
10:05	57.5	57.5	57.5	56	41.9	3	6	248	0.00	29.914 
10:10	57.8	57.8	57.8	56	42.2	4	11	248	0.00	29.914 
10:15	58.1	58.1	58.1	56	42.5	3	9	270	0.00	29.907 
10:20	58.4	58.4	58.4	55	42.3	4	11	248	0.00	29.907 
10:25	58.7	58.7	58.7	55	42.6	4	10	248	0.00	29.907 
10:30	58.9	58.9	58.9	56	43.2	4	10	248	0.00	29.906 
10:35	59.3	59.3	59.3	56	43.6	3	9	248	0.00	29.906 
10:40	59.5	59.5	59.5	56	43.8	4	11	270	0.00	29.906 
10:45	59.8	59.8	59.8	55	43.6	4	11	248	0.00	29.899 
10:50	60.1	60.1	60.1	56	44.3	2	7	248	0.00	29.899 
10:55	60.2	60.2	60.2	55	44.0	4	14	248	0.00	29.899 
11:00	60.2	60.2	60.2	55	44.0	6	14	248	0.00	29.893 
11:05	60.2	60.2	60.2	56	44.4	4	14	248	0.00	29.893 
11:10	60.4	60.4	60.4	56	44.6	5	13	270	0.00	29.893 
11:15	60.5	60.5	60.5	56	44.7	5	10	248	0.00	29.888 
11:20	60.7	60.7	60.7	56	44.9	4	10	248	0.00	29.888 
11:25	61.0	61.0	61.0	56	45.2	4	10	248	0.00	29.888 
11:30	61.2	61.2	61.2	56	45.4	4	11	248	0.00	29.888 
11:35	61.5	61.5	61.5	55	45.2	3	9	248	0.00	29.888 
11:40	61.8	61.8	61.8	55	45.5	3	9	270	0.00	29.888 
11:45	62.1	62.1	62.1	56	46.2	2	5	270	0.00	29.885 
11:50	62.4	62.4	62.4	54	45.5	4	10	248	0.00	29.885 
11:55	62.4	62.4	62.4	55	46.0	4	10	248	0.00	29.885 
12:00	62.6	62.6	62.6	54	45.7	4	12	248	0.00	29.879 
12:05	62.7	62.7	62.7	55	46.3	5	12	270	0.00	29.879 
12:10	62.9	62.9	62.9	55	46.5	5	13	248	0.00	29.879 
12:15	63.4	63.4	63.4	54	46.5	4	11	270	0.00	29.872 
12:20	63.5	63.5	63.5	54	46.6	4	10	248	0.00	29.872 
12:25	63.9	63.9	63.9	54	46.9	4	11	270	0.00	29.872 
12:30	64.0	64.0	64.0	54	47.0	3	7	248	0.00	29.871 
12:35	64.5	64.5	64.5	53	47.0	4	13	248	0.00	29.871 
12:40	64.8	64.8	64.8	53	47.3	3	9	270	0.00	29.871 
12:45	65.2	65.2	65.2	53	47.6	3	10	248	0.00	29.866 
12:50	65.3	65.3	65.3	52	47.2	4	12	248	0.00	29.866 
12:55	65.5	65.5	65.5	53	47.9	4	11	270	0.00	29.866 
13:00	65.6	65.6	65.6	53	48.0	4	12	270	0.00	29.860 
13:05	65.6	65.6	65.6	53	48.0	4	12	248	0.00	29.860 
13:10	66.0	66.0	66.0	53	48.4	3	9	248	0.00	29.860 
13:15	66.1	66.1	66.1	53	48.5	3	6	248	0.00	29.857 
13:20	66.3	66.3	66.3	52	48.1	3	8	248	0.00	29.857 
13:25	66.6	66.6	66.6	52	48.4	3	11	248	0.00	29.857 
13:30	66.8	66.8	66.8	52	48.6	3	7	248	0.00	29.854 
13:35	66.8	66.8	66.8	52	48.6	4	9	270	0.00	29.854 
13:40	66.8	66.8	66.8	51	48.1	4	14	248	0.00	29.854 
13:45	66.9	66.9	66.9	52	48.7	2	8	270	0.00	29.854 
13:50	67.1	67.1	67.1	51	48.4	4	10	248	0.00	29.854 
13:55	67.1	67.1	67.1	51	48.4	3	11	248	0.00	29.854 
14:00	67.1	67.1	67.1	53	49.4	3	10	248	0.00	29.854 
14:05	67.3	67.3	67.3	52	49.1	3	10	270	0.00	29.854 
14:10	67.4	67.4	67.4	52	49.2	4	11	270	0.00	29.854 
14:15	67.6	67.6	67.6	51	48.8	3	9	248	0.00	29.853 
14:20	67.6	67.6	67.6	51	48.8	3	7	248	0.00	29.853 
14:25	67.8	67.8	67.8	51	49.0	4	9	248	0.00	29.853 
14:30	67.9	67.9	67.9	51	49.1	5	13	248	0.00	29.853 
14:35	68.1	68.1	68.1	50	48.7	5	13	248	0.00	29.853 
14:40	68.1	68.1	68.1	50	48.7	4	12	248	0.00	29.853 
14:45	68.3	68.3	68.3	52	50.0	3	10	248	0.00	29.855 
14:50	68.4	68.4	68.4	52	50.1	4	11	270	0.00	29.855 
14:55	68.6	68.6	68.6	51	49.7	3	6	248	0.00	29.855 
15:00	68.8	68.8	68.8	50	49.4	4	16	248	0.00	29.849 
15:05	68.8	68.8	68.8	50	49.4	4	9	248	0.00	29.849 
15:10	68.8	68.8	68.8	50	49.4	3	7	248	0.00	29.849 
15:15	68.9	68.9	68.9	50	49.5	3	7	248	0.00	29.849 
15:20	68.9	68.9	68.9	50	49.5	3	9	248	0.00	29.849 
15:25	68.9	68.9	68.9	50	49.5	4	10	248	0.00	29.849 
15:30	68.8	68.8	68.8	50	49.4	4	10	270	0.00	29.849 
15:35	68.6	68.6	68.6	50	49.2	5	12	248	0.00	29.849 
15:40	68.4	68.4	68.4	50	49.0	3	11	248	0.00	29.849 
15:45	68.3	68.3	68.3	51	49.5	2	9	248	0.00	29.852 
15:50	68.3	68.3	68.3	51	49.5	3	10	248	0.00	29.852 
15:55	68.3	68.3	68.3	51	49.5	3	10	270	0.00	29.852 
16:00	68.3	68.3	68.3	51	49.5	3	8	248	0.00	29.874 
16:05	68.3	68.3	68.3	51	49.5	3	6	248	0.00	29.874 
16:10	68.1	68.1	68.1	52	49.8	3	9	248	0.00	29.874 
16:15	68.1	68.1	68.1	52	49.8	2	5	248	0.00	29.883 
16:20	67.9	67.9	67.9	52	49.6	3	7	270	0.00	29.883 
16:25	67.9	67.9	67.9	52	49.6	4	7	248	0.00	29.883 
16:30	67.8	67.8	67.8	52	49.5	3	10	248	0.00	29.884 
16:35	67.6	67.6	67.6	53	49.9	2	5	248	0.00	29.884 
16:40	67.4	67.4	67.4	53	49.7	1	4	248	0.00	29.884 
16:45	67.3	67.3	67.3	53	49.6	1	5	248	0.00	29.892 
16:50	67.1	67.1	67.1	54	49.9	2	7	248	0.00	29.892 
16:55	66.9	66.9	66.9	54	49.7	2	5	270	0.00	29.892 
17:00	66.8	66.8	66.8	54	49.6	2	6	248	0.00	29.897 
17:05	66.4	66.4	66.4	54	49.2	2	5	248	0.00	29.897 
17:10	66.3	66.3	66.3	55	49.6	2	7	248	0.00	29.897 
17:15	66.1	66.1	66.1	55	49.5	1	5	270	0.00	29.901 
17:20	65.8	65.8	65.8	56	49.7	2	7	248	0.00	29.901 
17:25	65.6	65.6	65.6	56	49.5	1	5	248	0.00	29.901 
17:30	65.5	65.5	65.5	57	49.9	1	4	248	0.00	29.915 
17:35	65.2	65.2	65.2	57	49.6	1	4	248	0.00	29.915 
17:40	65.0	65.0	65.0	58	49.9	1	3	248	0.00	29.915 
17:45	64.7	64.7	64.7	58	49.6	0	3	248	0.00	29.927 
17:50	64.3	64.3	64.3	59	49.7	1	5	248	0.00	29.927 
17:55	64.2	64.2	64.2	59	49.6	0	2	248	0.00	29.927 
18:00	63.9	63.9	63.9	60	49.7	1	3	248	0.00	29.934 
18:05	63.7	63.7	63.7	60	49.5	1	4	248	0.00	29.934 
18:10	63.7	63.7	63.7	60	49.5	1	4	248	0.00	29.934 
18:15	63.5	63.5	63.5	61	49.8	1	4	248	0.00	29.944 
18:20	63.4	63.4	63.4	61	49.7	0	2	248	0.00	29.944 
18:25	63.2	63.2	63.2	62	50.0	0	1	248	0.00	29.944 
18:30	63.1	63.1	63.1	62	49.9	0	2	248	0.00	29.950 
18:35	62.9	62.9	62.9	62	49.7	0	2	248	0.00	29.950 
18:40	62.7	62.7	62.7	62	49.5	1	3	248	0.00	29.950 
18:45	62.7	62.7	62.7	63	49.9	1	3	248	0.00	29.963 
18:50	62.6	62.6	62.6	63	49.8	1	4	248	0.00	29.963 
18:55	62.6	62.6	62.6	63	49.8	1	4	248	0.00	29.963 
19:00	62.6	62.6	62.6	63	49.8	0	2	248	0.00	29.969 
19:05	62.4	62.4	62.4	63	49.6	0	2	248	0.00	29.969 
19:10	62.3	62.3	62.3	64	50.0	0	2	248	0.00	29.969 
19:15	62.0	62.0	62.0	64	49.7	0	2	248	0.00	29.978 
19:20	61.8	61.8	61.8	65	49.9	0	1	248	0.00	29.978 
19:25	61.5	61.5	61.5	65	49.6	0	2	248	0.00	29.978 
19:30	61.3	61.3	61.3	66	49.8	0	1	248	0.00	29.983 
19:35	61.2	61.2	61.2	66	49.7	0	2	248	0.00	29.983 
19:40	61.0	61.0	61.0	66	49.6	0	1	248	0.00	29.983 
19:45	60.9	60.9	60.9	67	49.9	0	2	248	0.00	29.989 
19:50	60.7	60.7	60.7	67	49.7	0	1	248	0.00	29.989 
19:55	60.5	60.5	60.5	67	49.5	0	2	248	0.00	29.989 
20:00	60.5	60.5	60.5	67	49.5	0	2	248	0.00	29.992 
20:05	60.5	60.5	60.5	68	49.9	0	5	248	0.00	29.992 
20:10	60.5	60.5	60.5	68	49.9	1	4	248	0.00	29.992 
20:15	60.5	60.5	60.5	68	49.9	0	3	248	0.00	29.992 
20:20	60.5	60.5	60.5	68	49.9	1	4	248	0.00	29.992 
20:25	60.5	60.5	60.5	68	49.9	1	3	248	0.00	29.992 
20:30	60.5	60.5	60.5	68	49.9	1	4	248	0.00	29.995 
20:35	60.5	60.5	60.5	68	49.9	1	3	248	0.00	29.995 
20:40	60.5	60.5	60.5	68	49.9	1	5	248	0.00	29.995 
20:45	60.5	60.5	60.5	68	49.9	1	2	248	0.00	30.002 
20:50	60.5	60.5	60.5	68	49.9	1	4	248	0.00	30.002 
20:55	60.4	60.4	60.4	68	49.8	0	3	248	0.00	30.002 
21:00	60.4	60.4	60.4	69	50.2	1	4	248	0.00	30.010 
21:05	60.2	60.2	60.2	69	50.0	0	4	248	0.00	30.010 
21:10	60.1	60.1	60.1	69	49.9	0	2	248	0.00	30.010 
21:15	59.9	59.9	59.9	69	49.7	1	4	248	0.00	30.011 
21:20	59.8	59.8	59.8	69	49.6	1	3	248	0.00	30.011 
21:25	59.5	59.5	59.5	70	49.7	0	1	248	0.00	30.011 
21:30	59.3	59.3	59.3	70	49.5	0	1	248	0.00	30.015 
21:35	59.2	59.2	59.2	71	49.8	0	3	248	0.00	30.015 
21:40	59.0	59.0	59.0	71	49.6	0	2	248	0.00	30.015 
21:45	58.9	58.9	58.9	72	49.9	0	2	248	0.00	30.017 
21:50	58.7	58.7	58.7	72	49.7	0	2	248	0.00	30.017 
21:55	58.6	58.6	58.6	72	49.6	0	1	248	0.00	30.017 
22:00	58.4	58.4	58.4	73	49.8	0	1	248	0.00	30.021 
22:05	58.3	58.3	58.3	73	49.7	0	1	248	0.00	30.021 
22:10	58.1	58.1	58.1	74	49.9	0	2	248	0.00	30.021 
22:15	58.1	58.1	58.1	74	49.9	0	3	248	0.00	30.021 
22:20	58.1	58.1	58.1	74	49.9	0	2	248	0.00	30.021 
22:25	57.8	57.8	57.8	74	49.6	0	1	248	0.00	30.021 
22:30	57.5	57.5	57.5	74	49.3	0	0	---	0.00	30.022 
22:35	57.0	57.0	57.0	74	48.8	0	0	---	0.00	30.022 
22:40	56.6	56.6	56.6	75	48.8	0	0	---	0.00	30.022 
22:45	56.2	56.2	56.2	75	48.4	0	0	---	0.00	30.024 
22:50	55.6	55.6	55.6	77	48.5	0	0	---	0.00	30.024 
22:55	55.1	55.1	55.1	79	48.7	0	1	248	0.00	30.024 
23:00	54.7	54.7	54.7	80	48.7	0	0	---	0.00	30.027 
23:05	54.2	54.2	54.2	81	48.5	0	0	---	0.00	30.027 
23:10	53.9	53.9	53.9	81	48.2	0	0	---	0.00	30.027 
23:15	53.5	53.5	53.5	81	47.8	0	0	---	0.00	30.027 
23:20	53.2	53.2	53.2	82	47.8	0	0	---	0.00	30.027 
23:25	52.8	52.8	52.8	83	47.8	0	0	---	0.00	30.027 
23:30	52.6	52.6	52.6	84	47.9	0	0	---	0.00	30.034 
23:35	52.5	52.5	52.5	85	48.1	0	1	248	0.00	30.034 
23:40	52.6	52.6	52.6	86	48.5	0	1	248	0.00	30.034 
23:45	52.9	52.9	52.9	86	48.8	0	1	248	0.00	30.037 
23:50	53.1	53.1	53.1	86	49.0	0	0	---	0.00	30.037 
23:55	53.1	53.1	53.1	86	49.0	0	0	---	0.00	30.037 

CoCoRaHS
IN-AL-39
A2 Web Hosting
Creative Commons License
GoDaddy
search engine by freefind advanced

loaded 2018-11-20 03:50:49 • last modified 2010-11-18 10:43:29
Privacy PolicyDisclaimer
• wx.awcolley.com is powered by PmWiki v.2002016 •
• all content (unless otherwise noted) © 2018 A W Colley